sensor_id;sensor_type;location;lat;lon;timestamp;temperature;humidity
33811;DHT22;20119;48.334;16.206;2022-09-25T00:00:55;11.30;99.90
33811;DHT22;20119;48.334;16.206;2022-09-25T00:03:23;11.20;99.90
33811;DHT22;20119;48.334;16.206;2022-09-25T00:05:51;11.20;99.90
33811;DHT22;20119;48.334;16.206;2022-09-25T00:08:20;11.20;99.90
33811;DHT22;20119;48.334;16.206;2022-09-25T00:10:49;11.10;99.90
33811;DHT22;20119;48.334;16.206;2022-09-25T00:13:19;11.10;99.90
33811;DHT22;20119;48.334;16.206;2022-09-25T00:15:47;11.10;99.90
33811;DHT22;20119;48.334;16.206;2022-09-25T00:18:14;11.10;99.90
33811;DHT22;20119;48.334;16.206;2022-09-25T00:20:42;11.10;99.90
33811;DHT22;20119;48.334;16.206;2022-09-25T00:23:08;11.00;99.90
33811;DHT22;20119;48.334;16.206;2022-09-25T00:25:34;11.10;99.90
33811;DHT22;20119;48.334;16.206;2022-09-25T00:28:03;11.10;99.90
33811;DHT22;20119;48.334;16.206;2022-09-25T00:30:32;11.10;99.90
33811;DHT22;20119;48.334;16.206;2022-09-25T00:33:00;11.10;99.90
33811;DHT22;20119;48.334;16.206;2022-09-25T00:35:27;11.00;99.90
33811;DHT22;20119;48.334;16.206;2022-09-25T00:37:55;11.00;99.90
33811;DHT22;20119;48.334;16.206;2022-09-25T00:40:24;11.00;99.90
33811;DHT22;20119;48.334;16.206;2022-09-25T00:42:51;11.00;99.90
33811;DHT22;20119;48.334;16.206;2022-09-25T00:45:20;11.00;99.90
33811;DHT22;20119;48.334;16.206;2022-09-25T00:47:52;10.90;99.90
33811;DHT22;20119;48.334;16.206;2022-09-25T00:50:22;10.90;99.90
33811;DHT22;20119;48.334;16.206;2022-09-25T00:52:50;10.90;99.90
33811;DHT22;20119;48.334;16.206;2022-09-25T00:55:18;10.90;99.90
33811;DHT22;20119;48.334;16.206;2022-09-25T00:57:49;10.90;99.90
33811;DHT22;20119;48.334;16.206;2022-09-25T01:00:17;10.90;99.90
33811;DHT22;20119;48.334;16.206;2022-09-25T01:02:48;10.90;99.90
33811;DHT22;20119;48.334;16.206;2022-09-25T01:05:19;10.90;99.90
33811;DHT22;20119;48.334;16.206;2022-09-25T01:07:46;10.90;99.90
33811;DHT22;20119;48.334;16.206;2022-09-25T01:10:14;10.80;99.90
33811;DHT22;20119;48.334;16.206;2022-09-25T01:12:42;10.80;99.90
33811;DHT22;20119;48.334;16.206;2022-09-25T01:15:11;10.80;99.90
33811;DHT22;20119;48.334;16.206;2022-09-25T01:17:40;10.90;99.90
33811;DHT22;20119;48.334;16.206;2022-09-25T01:20:13;10.80;99.90
33811;DHT22;20119;48.334;16.206;2022-09-25T01:22:45;10.80;99.90
33811;DHT22;20119;48.334;16.206;2022-09-25T01:25:19;10.80;99.90
33811;DHT22;20119;48.334;16.206;2022-09-25T01:27:56;10.80;99.90
33811;DHT22;20119;48.334;16.206;2022-09-25T01:30:30;10.80;99.90
33811;DHT22;20119;48.334;16.206;2022-09-25T01:33:00;10.80;99.90
33811;DHT22;20119;48.334;16.206;2022-09-25T01:35:35;10.80;99.90
33811;DHT22;20119;48.334;16.206;2022-09-25T01:38:06;10.70;99.90
33811;DHT22;20119;48.334;16.206;2022-09-25T01:40:36;10.70;99.90
33811;DHT22;20119;48.334;16.206;2022-09-25T01:43:09;10.70;99.90
33811;DHT22;20119;48.334;16.206;2022-09-25T01:45:45;10.80;99.90
33811;DHT22;20119;48.334;16.206;2022-09-25T01:48:14;10.80;99.90
33811;DHT22;20119;48.334;16.206;2022-09-25T01:50:45;10.70;99.90
33811;DHT22;20119;48.334;16.206;2022-09-25T01:53:15;10.70;99.90
33811;DHT22;20119;48.334;16.206;2022-09-25T01:55:44;10.70;99.90
33811;DHT22;20119;48.334;16.206;2022-09-25T01:58:16;10.70;99.90
33811;DHT22;20119;48.334;16.206;2022-09-25T02:00:47;10.70;99.90
33811;DHT22;20119;48.334;16.206;2022-09-25T02:03:19;10.70;99.90
33811;DHT22;20119;48.334;16.206;2022-09-25T02:05:47;10.70;99.90
33811;DHT22;20119;48.334;16.206;2022-09-25T02:08:17;10.70;99.90
33811;DHT22;20119;48.334;16.206;2022-09-25T02:10:46;10.70;99.90
33811;DHT22;20119;48.334;16.206;2022-09-25T02:13:15;10.70;99.90
33811;DHT22;20119;48.334;16.206;2022-09-25T02:15:45;10.70;99.90
33811;DHT22;20119;48.334;16.206;2022-09-25T02:18:15;10.70;99.90
33811;DHT22;20119;48.334;16.206;2022-09-25T02:21:06;10.70;99.90
33811;DHT22;20119;48.334;16.206;2022-09-25T02:23:38;10.70;99.90
33811;DHT22;20119;48.334;16.206;2022-09-25T02:26:10;10.70;99.90
33811;DHT22;20119;48.334;16.206;2022-09-25T02:28:39;10.70;99.90
33811;DHT22;20119;48.334;16.206;2022-09-25T02:31:10;10.80;99.90
33811;DHT22;20119;48.334;16.206;2022-09-25T02:33:38;10.80;99.90
33811;DHT22;20119;48.334;16.206;2022-09-25T02:36:05;10.80;99.90
33811;DHT22;20119;48.334;16.206;2022-09-25T02:38:32;10.80;99.90
33811;DHT22;20119;48.334;16.206;2022-09-25T02:41:02;10.70;99.90
33811;DHT22;20119;48.334;16.206;2022-09-25T02:43:33;10.70;99.90
33811;DHT22;20119;48.334;16.206;2022-09-25T02:46:05;10.80;99.90
33811;DHT22;20119;48.334;16.206;2022-09-25T02:48:38;10.70;99.90
33811;DHT22;20119;48.334;16.206;2022-09-25T02:51:07;10.70;99.90
33811;DHT22;20119;48.334;16.206;2022-09-25T02:53:37;10.70;99.90
33811;DHT22;20119;48.334;16.206;2022-09-25T02:56:08;10.60;99.90
33811;DHT22;20119;48.334;16.206;2022-09-25T02:58:38;10.60;99.90
33811;DHT22;20119;48.334;16.206;2022-09-25T03:01:07;10.60;99.90
33811;DHT22;20119;48.334;16.206;2022-09-25T03:03:37;10.60;99.90
33811;DHT22;20119;48.334;16.206;2022-09-25T03:06:05;10.50;99.90
33811;DHT22;20119;48.334;16.206;2022-09-25T03:08:33;10.50;99.90
33811;DHT22;20119;48.334;16.206;2022-09-25T03:11:06;10.40;99.90
33811;DHT22;20119;48.334;16.206;2022-09-25T03:13:34;10.40;99.90
33811;DHT22;20119;48.334;16.206;2022-09-25T03:16:05;10.40;99.90
33811;DHT22;20119;48.334;16.206;2022-09-25T03:18:35;10.40;99.90
33811;DHT22;20119;48.334;16.206;2022-09-25T03:21:04;10.40;99.90
33811;DHT22;20119;48.334;16.206;2022-09-25T03:23:31;10.40;99.90
33811;DHT22;20119;48.334;16.206;2022-09-25T03:25:58;10.50;99.90
33811;DHT22;20119;48.334;16.206;2022-09-25T03:28:25;10.50;99.90
33811;DHT22;20119;48.334;16.206;2022-09-25T03:30:57;10.40;99.90
33811;DHT22;20119;48.334;16.206;2022-09-25T03:33:26;10.50;99.90
33811;DHT22;20119;48.334;16.206;2022-09-25T03:36:05;10.40;99.90
33811;DHT22;20119;48.334;16.206;2022-09-25T03:38:32;10.50;99.90
33811;DHT22;20119;48.334;16.206;2022-09-25T03:41:00;10.50;99.90
33811;DHT22;20119;48.334;16.206;2022-09-25T03:43:27;10.50;99.90
33811;DHT22;20119;48.334;16.206;2022-09-25T03:45:58;10.50;99.90
33811;DHT22;20119;48.334;16.206;2022-09-25T03:48:25;10.40;99.90
33811;DHT22;20119;48.334;16.206;2022-09-25T03:50:52;10.40;99.90
33811;DHT22;20119;48.334;16.206;2022-09-25T03:53:22;10.30;99.90
33811;DHT22;20119;48.334;16.206;2022-09-25T03:55:49;10.30;99.90
33811;DHT22;20119;48.334;16.206;2022-09-25T03:58:18;10.30;99.90
33811;DHT22;20119;48.334;16.206;2022-09-25T04:00:45;10.20;99.90
33811;DHT22;20119;48.334;16.206;2022-09-25T04:03:12;10.10;99.90
33811;DHT22;20119;48.334;16.206;2022-09-25T04:05:39;10.20;99.90
33811;DHT22;20119;48.334;16.206;2022-09-25T04:08:06;10.20;99.90
33811;DHT22;20119;48.334;16.206;2022-09-25T04:10:35;10.20;99.90
33811;DHT22;20119;48.334;16.206;2022-09-25T04:13:03;10.10;99.90
33811;DHT22;20119;48.334;16.206;2022-09-25T04:15:30;10.10;99.90
33811;DHT22;20119;48.334;16.206;2022-09-25T04:17:58;10.00;99.90
33811;DHT22;20119;48.334;16.206;2022-09-25T04:20:27;10.00;99.90
33811;DHT22;20119;48.334;16.206;2022-09-25T04:22:57;10.00;99.90
33811;DHT22;20119;48.334;16.206;2022-09-25T04:25:24;10.00;99.90
33811;DHT22;20119;48.334;16.206;2022-09-25T04:27:53;9.90;99.90
33811;DHT22;20119;48.334;16.206;2022-09-25T04:30:21;9.90;99.90
33811;DHT22;20119;48.334;16.206;2022-09-25T04:32:48;9.80;99.90
33811;DHT22;20119;48.334;16.206;2022-09-25T04:35:33;9.80;99.90
33811;DHT22;20119;48.334;16.206;2022-09-25T04:38:01;9.70;99.90
33811;DHT22;20119;48.334;16.206;2022-09-25T04:40:28;9.70;99.90
33811;DHT22;20119;48.334;16.206;2022-09-25T04:42:58;9.60;99.90
33811;DHT22;20119;48.334;16.206;2022-09-25T04:45:25;9.60;99.90
33811;DHT22;20119;48.334;16.206;2022-09-25T04:47:52;9.60;99.90
33811;DHT22;20119;48.334;16.206;2022-09-25T04:50:20;9.60;99.90
33811;DHT22;20119;48.334;16.206;2022-09-25T04:52:47;9.60;99.90
33811;DHT22;20119;48.334;16.206;2022-09-25T04:55:15;9.60;99.90
33811;DHT22;20119;48.334;16.206;2022-09-25T04:57:42;9.60;99.90
33811;DHT22;20119;48.334;16.206;2022-09-25T05:00:12;9.60;99.90
33811;DHT22;20119;48.334;16.206;2022-09-25T05:02:41;9.70;99.90
33811;DHT22;20119;48.334;16.206;2022-09-25T05:05:08;9.80;99.90
33811;DHT22;20119;48.334;16.206;2022-09-25T05:07:36;9.80;99.90
33811;DHT22;20119;48.334;16.206;2022-09-25T05:10:03;9.80;99.90
33811;DHT22;20119;48.334;16.206;2022-09-25T05:12:31;9.90;99.90
33811;DHT22;20119;48.334;16.206;2022-09-25T05:14:57;9.90;99.90
33811;DHT22;20119;48.334;16.206;2022-09-25T05:17:26;9.90;99.90
33811;DHT22;20119;48.334;16.206;2022-09-25T05:19:53;9.90;99.90
33811;DHT22;20119;48.334;16.206;2022-09-25T05:22:23;9.90;99.90
33811;DHT22;20119;48.334;16.206;2022-09-25T05:24:50;10.10;99.90
33811;DHT22;20119;48.334;16.206;2022-09-25T05:27:18;10.20;99.90
33811;DHT22;20119;48.334;16.206;2022-09-25T05:29:46;10.20;99.90
33811;DHT22;20119;48.334;16.206;2022-09-25T05:32:14;10.20;99.90
33811;DHT22;20119;48.334;16.206;2022-09-25T05:34:43;10.20;99.90
33811;DHT22;20119;48.334;16.206;2022-09-25T05:37:09;10.30;99.90
33811;DHT22;20119;48.334;16.206;2022-09-25T05:39:37;10.30;99.90
33811;DHT22;20119;48.334;16.206;2022-09-25T05:42:03;10.30;99.90
33811;DHT22;20119;48.334;16.206;2022-09-25T05:44:30;10.40;99.90
33811;DHT22;20119;48.334;16.206;2022-09-25T05:46:57;10.40;99.90
33811;DHT22;20119;48.334;16.206;2022-09-25T05:49:24;10.50;99.90
33811;DHT22;20119;48.334;16.206;2022-09-25T05:51:52;10.50;99.90
33811;DHT22;20119;48.334;16.206;2022-09-25T05:54:19;10.50;99.90
33811;DHT22;20119;48.334;16.206;2022-09-25T05:56:49;10.60;99.90
33811;DHT22;20119;48.334;16.206;2022-09-25T05:59:16;10.60;99.90
33811;DHT22;20119;48.334;16.206;2022-09-25T06:01:43;10.70;99.90
33811;DHT22;20119;48.334;16.206;2022-09-25T06:04:10;10.70;99.90
33811;DHT22;20119;48.334;16.206;2022-09-25T06:06:36;10.80;99.90
33811;DHT22;20119;48.334;16.206;2022-09-25T06:09:05;10.80;99.90
33811;DHT22;20119;48.334;16.206;2022-09-25T06:11:32;10.90;99.90
33811;DHT22;20119;48.334;16.206;2022-09-25T06:13:59;10.90;99.90
33811;DHT22;20119;48.334;16.206;2022-09-25T06:16:27;10.90;99.90
33811;DHT22;20119;48.334;16.206;2022-09-25T06:18:55;11.00;99.90
33811;DHT22;20119;48.334;16.206;2022-09-25T06:21:23;11.20;99.90
33811;DHT22;20119;48.334;16.206;2022-09-25T06:23:50;11.30;99.90
33811;DHT22;20119;48.334;16.206;2022-09-25T06:26:19;11.30;99.90
33811;DHT22;20119;48.334;16.206;2022-09-25T06:28:46;11.40;99.90
33811;DHT22;20119;48.334;16.206;2022-09-25T06:31:13;11.50;99.90
33811;DHT22;20119;48.334;16.206;2022-09-25T06:33:40;11.70;99.90
33811;DHT22;20119;48.334;16.206;2022-09-25T06:36:08;11.70;99.90
33811;DHT22;20119;48.334;16.206;2022-09-25T06:38:34;11.80;99.90
33811;DHT22;20119;48.334;16.206;2022-09-25T06:41:01;11.90;99.90
33811;DHT22;20119;48.334;16.206;2022-09-25T06:43:33;12.00;99.90
33811;DHT22;20119;48.334;16.206;2022-09-25T06:46:03;12.00;99.90
33811;DHT22;20119;48.334;16.206;2022-09-25T06:48:31;12.00;99.90
33811;DHT22;20119;48.334;16.206;2022-09-25T06:50:58;12.10;99.90
33811;DHT22;20119;48.334;16.206;2022-09-25T06:53:26;12.10;99.90
33811;DHT22;20119;48.334;16.206;2022-09-25T06:55:56;12.20;99.90
33811;DHT22;20119;48.334;16.206;2022-09-25T06:58:24;12.40;99.90
33811;DHT22;20119;48.334;16.206;2022-09-25T07:00:53;12.50;99.90
33811;DHT22;20119;48.334;16.206;2022-09-25T07:03:21;12.50;99.90
33811;DHT22;20119;48.334;16.206;2022-09-25T07:06:17;12.50;99.90
33811;DHT22;20119;48.334;16.206;2022-09-25T07:08:45;12.60;99.90
33811;DHT22;20119;48.334;16.206;2022-09-25T07:11:13;12.60;99.90
33811;DHT22;20119;48.334;16.206;2022-09-25T07:13:41;12.80;99.90
33811;DHT22;20119;48.334;16.206;2022-09-25T07:16:11;12.80;99.90
33811;DHT22;20119;48.334;16.206;2022-09-25T07:18:40;12.90;99.90
33811;DHT22;20119;48.334;16.206;2022-09-25T07:21:08;13.00;99.90
33811;DHT22;20119;48.334;16.206;2022-09-25T07:23:36;13.00;99.90
33811;DHT22;20119;48.334;16.206;2022-09-25T07:26:03;13.10;99.90
33811;DHT22;20119;48.334;16.206;2022-09-25T07:28:30;13.30;99.90
33811;DHT22;20119;48.334;16.206;2022-09-25T07:30:57;13.30;99.90
33811;DHT22;20119;48.334;16.206;2022-09-25T07:33:25;13.30;99.90
33811;DHT22;20119;48.334;16.206;2022-09-25T07:35:52;13.30;99.90
33811;DHT22;20119;48.334;16.206;2022-09-25T07:38:20;13.60;99.90
33811;DHT22;20119;48.334;16.206;2022-09-25T07:40:51;14.00;99.90
33811;DHT22;20119;48.334;16.206;2022-09-25T07:43:20;14.00;99.90
33811;DHT22;20119;48.334;16.206;2022-09-25T07:45:48;13.70;99.90
33811;DHT22;20119;48.334;16.206;2022-09-25T07:48:18;13.70;99.90
33811;DHT22;20119;48.334;16.206;2022-09-25T07:50:46;13.70;99.90
33811;DHT22;20119;48.334;16.206;2022-09-25T07:53:14;14.00;99.90
33811;DHT22;20119;48.334;16.206;2022-09-25T07:55:43;13.80;99.90
33811;DHT22;20119;48.334;16.206;2022-09-25T07:58:11;13.80;99.90
33811;DHT22;20119;48.334;16.206;2022-09-25T08:00:38;13.70;99.90
33811;DHT22;20119;48.334;16.206;2022-09-25T08:03:07;13.80;99.90
33811;DHT22;20119;48.334;16.206;2022-09-25T08:05:35;13.80;99.90
33811;DHT22;20119;48.334;16.206;2022-09-25T08:08:03;13.90;99.90
33811;DHT22;20119;48.334;16.206;2022-09-25T08:10:30;13.90;99.90
33811;DHT22;20119;48.334;16.206;2022-09-25T08:12:58;14.20;99.90
33811;DHT22;20119;48.334;16.206;2022-09-25T08:15:26;14.20;99.90
33811;DHT22;20119;48.334;16.206;2022-09-25T08:17:53;14.30;99.90
33811;DHT22;20119;48.334;16.206;2022-09-25T08:20:21;14.50;99.90
33811;DHT22;20119;48.334;16.206;2022-09-25T08:22:51;14.50;99.90
33811;DHT22;20119;48.334;16.206;2022-09-25T08:25:20;14.60;99.90
33811;DHT22;20119;48.334;16.206;2022-09-25T08:27:47;14.70;99.90
33811;DHT22;20119;48.334;16.206;2022-09-25T08:30:14;14.80;99.90
33811;DHT22;20119;48.334;16.206;2022-09-25T08:32:43;15.00;99.90
33811;DHT22;20119;48.334;16.206;2022-09-25T08:35:11;15.00;99.90
33811;DHT22;20119;48.334;16.206;2022-09-25T08:37:39;15.00;99.90
33811;DHT22;20119;48.334;16.206;2022-09-25T08:40:09;15.10;99.90
33811;DHT22;20119;48.334;16.206;2022-09-25T08:42:44;14.90;99.90
33811;DHT22;20119;48.334;16.206;2022-09-25T08:45:19;14.90;99.90
33811;DHT22;20119;48.334;16.206;2022-09-25T08:48:04;15.20;99.90
33811;DHT22;20119;48.334;16.206;2022-09-25T08:50:50;15.10;99.90
33811;DHT22;20119;48.334;16.206;2022-09-25T08:53:20;15.30;99.90
33811;DHT22;20119;48.334;16.206;2022-09-25T08:55:49;15.40;99.90
33811;DHT22;20119;48.334;16.206;2022-09-25T08:58:35;15.40;99.90
33811;DHT22;20119;48.334;16.206;2022-09-25T09:01:06;15.40;99.90
33811;DHT22;20119;48.334;16.206;2022-09-25T09:03:35;15.30;99.90
33811;DHT22;20119;48.334;16.206;2022-09-25T09:06:04;15.50;99.90
33811;DHT22;20119;48.334;16.206;2022-09-25T09:08:33;15.50;99.90
33811;DHT22;20119;48.334;16.206;2022-09-25T09:11:03;15.60;99.90
33811;DHT22;20119;48.334;16.206;2022-09-25T09:13:34;15.60;99.90
33811;DHT22;20119;48.334;16.206;2022-09-25T09:16:06;15.60;99.90
33811;DHT22;20119;48.334;16.206;2022-09-25T09:18:35;15.50;99.90
33811;DHT22;20119;48.334;16.206;2022-09-25T09:21:05;15.50;99.90
33811;DHT22;20119;48.334;16.206;2022-09-25T09:23:33;15.50;99.90
33811;DHT22;20119;48.334;16.206;2022-09-25T09:26:02;15.60;99.90
33811;DHT22;20119;48.334;16.206;2022-09-25T09:31:17;15.80;99.90
33811;DHT22;20119;48.334;16.206;2022-09-25T09:33:47;16.10;99.90
33811;DHT22;20119;48.334;16.206;2022-09-25T09:36:19;15.80;99.90
33811;DHT22;20119;48.334;16.206;2022-09-25T09:38:52;15.60;99.90
33811;DHT22;20119;48.334;16.206;2022-09-25T09:41:30;15.40;99.90
33811;DHT22;20119;48.334;16.206;2022-09-25T09:44:02;15.40;99.90
33811;DHT22;20119;48.334;16.206;2022-09-25T09:46:35;15.40;99.90
33811;DHT22;20119;48.334;16.206;2022-09-25T09:49:09;15.60;99.90
33811;DHT22;20119;48.334;16.206;2022-09-25T09:51:37;15.50;99.90
33811;DHT22;20119;48.334;16.206;2022-09-25T09:54:08;15.40;99.90
33811;DHT22;20119;48.334;16.206;2022-09-25T09:56:36;15.60;99.90
33811;DHT22;20119;48.334;16.206;2022-09-25T09:59:10;15.40;99.90
33811;DHT22;20119;48.334;16.206;2022-09-25T10:01:40;15.30;99.90
33811;DHT22;20119;48.334;16.206;2022-09-25T10:04:08;15.30;99.90
33811;DHT22;20119;48.334;16.206;2022-09-25T10:06:36;15.40;99.90
33811;DHT22;20119;48.334;16.206;2022-09-25T10:09:04;15.20;99.90
33811;DHT22;20119;48.334;16.206;2022-09-25T10:11:33;15.20;99.90
33811;DHT22;20119;48.334;16.206;2022-09-25T10:14:02;15.30;99.90
33811;DHT22;20119;48.334;16.206;2022-09-25T10:16:29;15.50;99.90
33811;DHT22;20119;48.334;16.206;2022-09-25T10:18:59;15.30;99.90
33811;DHT22;20119;48.334;16.206;2022-09-25T10:21:28;15.40;99.90
33811;DHT22;20119;48.334;16.206;2022-09-25T10:23:56;15.20;99.90
33811;DHT22;20119;48.334;16.206;2022-09-25T10:26:25;15.10;99.90
33811;DHT22;20119;48.334;16.206;2022-09-25T10:28:54;15.00;99.90
33811;DHT22;20119;48.334;16.206;2022-09-25T10:31:22;15.20;99.90
33811;DHT22;20119;48.334;16.206;2022-09-25T10:34:02;15.10;99.90
33811;DHT22;20119;48.334;16.206;2022-09-25T10:36:31;15.10;99.90
33811;DHT22;20119;48.334;16.206;2022-09-25T10:39:00;14.80;99.90
33811;DHT22;20119;48.334;16.206;2022-09-25T10:41:28;14.70;99.90
33811;DHT22;20119;48.334;16.206;2022-09-25T10:44:08;14.60;99.90
33811;DHT22;20119;48.334;16.206;2022-09-25T10:46:45;14.80;99.90
33811;DHT22;20119;48.334;16.206;2022-09-25T10:49:31;14.80;99.90
33811;DHT22;20119;48.334;16.206;2022-09-25T10:52:27;14.70;99.90
33811;DHT22;20119;48.334;16.206;2022-09-25T10:54:56;14.60;99.90
33811;DHT22;20119;48.334;16.206;2022-09-25T10:57:36;14.60;99.90
33811;DHT22;20119;48.334;16.206;2022-09-25T11:00:04;14.90;99.90
33811;DHT22;20119;48.334;16.206;2022-09-25T11:02:33;15.10;99.90
33811;DHT22;20119;48.334;16.206;2022-09-25T11:05:04;15.20;99.90
33811;DHT22;20119;48.334;16.206;2022-09-25T11:07:31;15.40;99.90
33811;DHT22;20119;48.334;16.206;2022-09-25T11:09:59;15.60;99.90
33811;DHT22;20119;48.334;16.206;2022-09-25T11:12:26;15.90;99.90
33811;DHT22;20119;48.334;16.206;2022-09-25T11:14:55;15.70;99.90
33811;DHT22;20119;48.334;16.206;2022-09-25T11:17:30;15.80;99.90
33811;DHT22;20119;48.334;16.206;2022-09-25T11:20:10;15.80;99.90
33811;DHT22;20119;48.334;16.206;2022-09-25T11:22:38;15.90;99.90
33811;DHT22;20119;48.334;16.206;2022-09-25T11:25:09;15.70;99.90
33811;DHT22;20119;48.334;16.206;2022-09-25T11:27:40;15.70;99.90
33811;DHT22;20119;48.334;16.206;2022-09-25T11:30:10;15.80;99.90
33811;DHT22;20119;48.334;16.206;2022-09-25T11:32:41;15.80;99.90
33811;DHT22;20119;48.334;16.206;2022-09-25T11:35:17;15.70;99.90
33811;DHT22;20119;48.334;16.206;2022-09-25T11:37:49;15.80;99.90
33811;DHT22;20119;48.334;16.206;2022-09-25T11:40:23;15.90;99.90
33811;DHT22;20119;48.334;16.206;2022-09-25T11:43:10;16.00;99.90
33811;DHT22;20119;48.334;16.206;2022-09-25T11:45:39;15.80;99.90
33811;DHT22;20119;48.334;16.206;2022-09-25T11:48:09;16.00;99.90
33811;DHT22;20119;48.334;16.206;2022-09-25T11:50:43;15.90;99.90
33811;DHT22;20119;48.334;16.206;2022-09-25T11:53:13;15.40;99.90
33811;DHT22;20119;48.334;16.206;2022-09-25T11:55:51;15.50;99.90
33811;DHT22;20119;48.334;16.206;2022-09-25T11:58:35;15.60;99.90
33811;DHT22;20119;48.334;16.206;2022-09-25T12:01:06;15.50;99.90
33811;DHT22;20119;48.334;16.206;2022-09-25T12:03:40;15.40;99.90
33811;DHT22;20119;48.334;16.206;2022-09-25T12:06:15;15.50;99.90
33811;DHT22;20119;48.334;16.206;2022-09-25T12:08:49;15.60;99.90
33811;DHT22;20119;48.334;16.206;2022-09-25T12:11:22;15.80;99.90
33811;DHT22;20119;48.334;16.206;2022-09-25T12:13:51;16.00;99.90
33811;DHT22;20119;48.334;16.206;2022-09-25T12:16:21;16.10;99.90
33811;DHT22;20119;48.334;16.206;2022-09-25T12:18:58;16.20;99.90
33811;DHT22;20119;48.334;16.206;2022-09-25T12:21:31;16.40;99.90
33811;DHT22;20119;48.334;16.206;2022-09-25T12:24:01;16.60;99.90
33811;DHT22;20119;48.334;16.206;2022-09-25T12:26:32;16.60;99.90
33811;DHT22;20119;48.334;16.206;2022-09-25T12:29:05;16.60;99.90
33811;DHT22;20119;48.334;16.206;2022-09-25T12:31:36;16.80;99.90
33811;DHT22;20119;48.334;16.206;2022-09-25T12:34:07;16.90;99.90
33811;DHT22;20119;48.334;16.206;2022-09-25T12:36:41;17.10;99.90
33811;DHT22;20119;48.334;16.206;2022-09-25T12:39:17;17.10;99.90
33811;DHT22;20119;48.334;16.206;2022-09-25T12:41:48;16.60;99.90
33811;DHT22;20119;48.334;16.206;2022-09-25T12:44:17;16.50;99.90
33811;DHT22;20119;48.334;16.206;2022-09-25T12:46:48;16.70;99.90
33811;DHT22;20119;48.334;16.206;2022-09-25T12:49:16;16.60;99.90
33811;DHT22;20119;48.334;16.206;2022-09-25T12:51:47;16.60;99.90
33811;DHT22;20119;48.334;16.206;2022-09-25T12:54:19;16.80;99.90
33811;DHT22;20119;48.334;16.206;2022-09-25T12:56:50;16.90;99.90
33811;DHT22;20119;48.334;16.206;2022-09-25T12:59:20;17.20;99.90
33811;DHT22;20119;48.334;16.206;2022-09-25T13:01:50;17.30;99.90
33811;DHT22;20119;48.334;16.206;2022-09-25T13:04:26;17.30;99.90
33811;DHT22;20119;48.334;16.206;2022-09-25T13:07:02;17.20;99.90
33811;DHT22;20119;48.334;16.206;2022-09-25T13:09:34;17.00;99.90
33811;DHT22;20119;48.334;16.206;2022-09-25T13:12:03;17.20;99.90
33811;DHT22;20119;48.334;16.206;2022-09-25T13:14:31;17.00;99.90
33811;DHT22;20119;48.334;16.206;2022-09-25T13:17:00;17.20;99.90
33811;DHT22;20119;48.334;16.206;2022-09-25T13:19:27;17.10;99.90
33811;DHT22;20119;48.334;16.206;2022-09-25T13:22:03;17.10;99.90
33811;DHT22;20119;48.334;16.206;2022-09-25T13:24:36;17.00;99.90
33811;DHT22;20119;48.334;16.206;2022-09-25T13:27:04;17.00;99.90
33811;DHT22;20119;48.334;16.206;2022-09-25T13:29:32;17.20;99.90
33811;DHT22;20119;48.334;16.206;2022-09-25T13:32:01;17.00;99.90
33811;DHT22;20119;48.334;16.206;2022-09-25T13:34:28;17.20;99.90
33811;DHT22;20119;48.334;16.206;2022-09-25T13:36:59;17.10;99.90
33811;DHT22;20119;48.334;16.206;2022-09-25T13:39:31;17.20;99.90
33811;DHT22;20119;48.334;16.206;2022-09-25T13:42:20;17.10;99.90
33811;DHT22;20119;48.334;16.206;2022-09-25T13:44:49;16.80;99.90
33811;DHT22;20119;48.334;16.206;2022-09-25T13:47:37;16.80;99.90
33811;DHT22;20119;48.334;16.206;2022-09-25T14:01:17;16.30;99.90
33811;DHT22;20119;48.334;16.206;2022-09-25T14:03:46;16.40;99.90
33811;DHT22;20119;48.334;16.206;2022-09-25T14:06:15;16.40;99.90
33811;DHT22;20119;48.334;16.206;2022-09-25T14:08:42;16.20;99.90
33811;DHT22;20119;48.334;16.206;2022-09-25T14:11:11;16.10;99.90
33811;DHT22;20119;48.334;16.206;2022-09-25T14:13:38;16.10;99.90
33811;DHT22;20119;48.334;16.206;2022-09-25T14:16:14;15.70;99.90
33811;DHT22;20119;48.334;16.206;2022-09-25T14:18:44;16.00;99.90
33811;DHT22;20119;48.334;16.206;2022-09-25T14:21:12;16.10;99.90
33811;DHT22;20119;48.334;16.206;2022-09-25T14:23:46;15.90;99.90
33811;DHT22;20119;48.334;16.206;2022-09-25T14:26:16;16.10;99.90
33811;DHT22;20119;48.334;16.206;2022-09-25T14:28:44;16.00;99.90
33811;DHT22;20119;48.334;16.206;2022-09-25T14:31:15;16.20;99.90
33811;DHT22;20119;48.334;16.206;2022-09-25T14:33:55;16.10;99.90
33811;DHT22;20119;48.334;16.206;2022-09-25T14:36:28;16.00;99.90
33811;DHT22;20119;48.334;16.206;2022-09-25T14:39:04;16.00;99.90
33811;DHT22;20119;48.334;16.206;2022-09-25T14:41:40;15.80;99.90
33811;DHT22;20119;48.334;16.206;2022-09-25T14:44:19;15.80;99.90
33811;DHT22;20119;48.334;16.206;2022-09-25T14:46:50;15.80;99.90
33811;DHT22;20119;48.334;16.206;2022-09-25T14:49:20;15.70;99.90
33811;DHT22;20119;48.334;16.206;2022-09-25T14:51:49;15.60;99.90
33811;DHT22;20119;48.334;16.206;2022-09-25T14:54:17;15.40;99.90
33811;DHT22;20119;48.334;16.206;2022-09-25T14:56:46;15.60;99.90
33811;DHT22;20119;48.334;16.206;2022-09-25T14:59:15;15.70;99.90
33811;DHT22;20119;48.334;16.206;2022-09-25T15:01:44;15.50;99.90
33811;DHT22;20119;48.334;16.206;2022-09-25T15:04:12;15.60;99.90
33811;DHT22;20119;48.334;16.206;2022-09-25T15:06:58;15.60;99.90
33811;DHT22;20119;48.334;16.206;2022-09-25T15:09:29;15.70;99.90
33811;DHT22;20119;48.334;16.206;2022-09-25T15:11:56;15.90;99.90
33811;DHT22;20119;48.334;16.206;2022-09-25T15:14:23;15.80;99.90
33811;DHT22;20119;48.334;16.206;2022-09-25T15:16:50;15.70;99.90
33811;DHT22;20119;48.334;16.206;2022-09-25T15:19:35;15.80;99.90
33811;DHT22;20119;48.334;16.206;2022-09-25T15:22:08;15.60;99.90
33811;DHT22;20119;48.334;16.206;2022-09-25T15:24:35;15.80;99.90
33811;DHT22;20119;48.334;16.206;2022-09-25T15:27:03;15.90;99.90
33811;DHT22;20119;48.334;16.206;2022-09-25T15:29:33;15.90;99.90
33811;DHT22;20119;48.334;16.206;2022-09-25T15:32:01;16.00;99.90
33811;DHT22;20119;48.334;16.206;2022-09-25T15:34:30;16.00;99.90
33811;DHT22;20119;48.334;16.206;2022-09-25T15:37:15;15.90;99.90
33811;DHT22;20119;48.334;16.206;2022-09-25T15:39:42;15.90;99.90
33811;DHT22;20119;48.334;16.206;2022-09-25T15:42:10;15.90;99.90
33811;DHT22;20119;48.334;16.206;2022-09-25T15:44:38;15.70;99.90
33811;DHT22;20119;48.334;16.206;2022-09-25T15:47:04;15.70;99.90
33811;DHT22;20119;48.334;16.206;2022-09-25T15:49:32;15.40;99.90